Station Historical Data
Daily Summary for April 27, 2017 Units:  Metric    English   Both
« Previous Day
Next Day »
Daily Weekly Monthly Yearly Custom
  High: Low: Average:
Temperature: 30.5 °C 12.6 °C 20.4 °C
Dew Point: 18 °C 8.3 °C 13.7 °C
Humidity: 90% 37% 69%
Wind Speed: 27.4km/h 0km/h 6km/h
Wind Gust: 45.1km/h - -
Wind- - South
Pressure: 1007.3 hPa 998.5 hPa -
Precipitation: 3.3 mm    
Historical Graphs
 
 
Tabular Data for April 27, 2017
Time Temperature Dew Point Pressure Wind Wind Speed Wind Gust Humidity Rainfall Rate (Hourly)
00:00 14.6 °C 12.1 °C 1005 hPa Calm     85% 0 mm
00:05 14.5 °C 12.2 °C 1005 hPa Calm     86% 0 mm
00:10 14.3 °C 11.8 °C 1005 hPa Calm     85% 0 mm
00:15 14.2 °C 11.8 °C 1005 hPa Calm     86% 0 mm
00:20 14.1 °C 12 °C 1005 hPa Calm     87% 0 mm
00:25 14 °C 11.9 °C 1005 hPa Calm     87% 0 mm
00:30 14.1 °C 11.9 °C 1005 hPa Calm     87% 0 mm
00:35 13.9 °C 11.8 °C 1005 hPa Calm     87% 0 mm
00:40 13.9 °C 12 °C 1005 hPa Calm     88% 0 mm
00:45 14 °C 11.9 °C 1005 hPa Calm     87% 0 mm
00:50 13.9 °C 11.8 °C 1005 hPa Calm     87% 0 mm
00:55 13.7 °C 11.6 °C 1005 hPa Calm     87% 0 mm
01:00 13.8 °C 11.8 °C 1005 hPa Calm     88% 0 mm
01:05 13.7 °C 11.8 °C 1005 hPa Calm     88% 0 mm
01:10 13.8 °C 11.9 °C 1005 hPa Calm     88% 0 mm
01:15 13.9 °C 12 °C 1005 hPa Calm     88% 0 mm
01:20 13.9 °C 12 °C 1005 hPa Calm     88% 0 mm
01:25 13.9 °C 11.9 °C 1005 hPa Calm     88% 0 mm
01:30 13.8 °C 11.9 °C 1004.6 hPa Calm     88% 0 mm
01:35 13.8 °C 11.9 °C 1004.6 hPa Calm     88% 0 mm
01:40 13.7 °C 11.8 °C 1004.6 hPa Calm     88% 0 mm
01:45 13.6 °C 11.8 °C 1004.6 hPa Calm     89% 0 mm
01:50 13.4 °C 11.7 °C 1004.6 hPa Calm     89% 0 mm
01:55 13.6 °C 11.8 °C 1004.6 hPa Calm     89% 0 mm
02:00 13.5 °C 11.7 °C 1004.6 hPa Calm     89% 0 mm
02:05 13.6 °C 12 °C 1004.6 hPa Calm     90% 0 mm
02:10 13.6 °C 11.8 °C 1004.6 hPa Calm     89% 0 mm
02:15 13.6 °C 11.9 °C 1004.6 hPa Calm     90% 0 mm
02:20 13.8 °C 12.2 °C 1004.6 hPa Calm     90% 0 mm
02:25 13.8 °C 12.2 °C 1004.6 hPa Calm     90% 0 mm
02:30 13.8 °C 12.2 °C 1004.6 hPa Calm     90% 0 mm
02:35 13.8 °C 12.2 °C 1004.6 hPa Calm     90% 0 mm
02:40 13.9 °C 12.3 °C 1004.6 hPa Calm     90% 0 mm
02:45 13.9 °C 12.3 °C 1004.3 hPa Calm     90% 0 mm
02:50 14 °C 12.2 °C 1004.6 hPa Calm     89% 0 mm
02:55 14.1 °C 12.3 °C 1004.6 hPa Calm     89% 0 mm
03:00 14.1 °C 12.3 °C 1004.3 hPa Calm     89% 0 mm
03:05 14.2 °C 12.3 °C 1004.3 hPa Calm     88% 0 mm
03:10 14.2 °C 12.2 °C 1004.3 hPa Calm     88% 0 mm
03:15 14.2 °C 12.3 °C 1004.3 hPa Calm     88% 0 mm
03:20 14.4 °C 12.3 °C 1004.3 hPa Calm     87% 0 mm
03:25 14.5 °C 12.3 °C 1004.3 hPa Calm     87% 0 mm
03:30 14.5 °C 12.2 °C 1004.3 hPa Calm     86% 0 mm
03:35 14.6 °C 12.2 °C 1003.9 hPa Calm     86% 0 mm
03:40 14.7 °C 12.2 °C 1003.9 hPa Calm     85% 0 mm
03:45 14.7 °C 12.2 °C 1003.9 hPa Calm     85% 0 mm
03:50 14.8 °C 12.3 °C 1003.9 hPa Calm   1.6 km/h 85% 0 mm
03:55 14.8 °C 12.3 °C 1003.9 hPa Calm   3.2 km/h 85% 0 mm
04:00 14.7 °C 12.2 °C 1004.3 hPa SSE 1.6 km/h 3.2 km/h 85% 0 mm
04:05 14.7 °C 12.2 °C 1003.9 hPa Calm   3.2 km/h 85% 0 mm
04:10 14.6 °C 12.1 °C 1003.9 hPa Calm   3.2 km/h 85% 0 mm
04:15 14.6 °C 12.1 °C 1003.9 hPa Calm   3.2 km/h 85% 0 mm
04:20 14.6 °C 12.1 °C 1003.9 hPa Calm   1.6 km/h 85% 0 mm
04:25 14.6 °C 12.1 °C 1003.9 hPa Calm     85% 0 mm
04:30 14.5 °C 12 °C 1003.9 hPa Calm     85% 0 mm
04:35 14.6 °C 12.1 °C 1003.9 hPa Calm     85% 0 mm
04:40 14.5 °C 12 °C 1003.9 hPa Calm     85% 0 mm
04:45 14.4 °C 11.9 °C 1003.9 hPa Calm     85% 0 mm
04:50 14.4 °C 11.9 °C 1003.9 hPa Calm     85% 0 mm
04:55 14.3 °C 12 °C 1003.9 hPa Calm     86% 0 mm
05:00 14.1 °C 11.8 °C 1003.9 hPa Calm     86% 0 mm
05:05 14.1 °C 11.7 °C 1003.9 hPa Calm     86% 0 mm
05:10 14 °C 11.7 °C 1003.9 hPa Calm     86% 0 mm
05:15 13.8 °C 11.5 °C 1004.3 hPa Calm     86% 0 mm
05:20 13.7 °C 11.6 °C 1004.3 hPa Calm     87% 0 mm
05:25 13.8 °C 11.7 °C 1004.3 hPa Calm     87% 0 mm
05:35 14 °C 11.9 °C 1004.3 hPa Calm     87% 0 mm
05:40 14.1 °C 11.9 °C 1004.3 hPa Calm     87% 0 mm
05:45 14.1 °C 12 °C 1004.3 hPa Calm     87% 0 mm
05:50 14.2 °C 12.1 °C 1004.3 hPa Calm     87% 0 mm
05:55 14.2 °C 11.9 °C 1004.3 hPa Calm     86% 0 mm
06:00 14.3 °C 12 °C 1004.3 hPa Calm     86% 0 mm
06:05 14.4 °C 12.1 °C 1004.3 hPa Calm     86% 0 mm
06:10 14.4 °C 12.1 °C 1004.3 hPa Calm     86% 0 mm
06:15 14.5 °C 12.2 °C 1004.3 hPa Calm     86% 0 mm
06:20 14.6 °C 12.1 °C 1004.3 hPa Calm     85% 0 mm
06:25 14.7 °C 12.2 °C 1004.3 hPa Calm     85% 0 mm
06:30 14.8 °C 12.3 °C 1004.3 hPa Calm     85% 0 mm
06:35 14.8 °C 12.3 °C 1004.3 hPa Calm     85% 0 mm
06:40 14.9 °C 12.4 °C 1004.3 hPa Calm     85% 0 mm
06:45 15.1 °C 12.4 °C 1004.3 hPa Calm     84% 0 mm
06:50 15.2 °C 12.7 °C 1003.9 hPa Calm     85% 0 mm
06:55 15.3 °C 12.6 °C 1003.9 hPa Calm     84% 0 mm
07:00 15.6 °C 12.9 °C 1004.3 hPa Calm     84% 0 mm
07:05 15.8 °C 12.9 °C 1004.3 hPa Calm     83% 0 mm
07:10 15.9 °C 13.1 °C 1004.3 hPa Calm     83% 0 mm
07:15 16.3 °C 13.2 °C 1004.3 hPa Calm     82% 0 mm
07:20 16.7 °C 13.4 °C 1004.3 hPa Calm   8 km/h 81% 0 mm
07:25 17 °C 13.5 °C 1004.3 hPa SE 1.6 km/h 8 km/h 80% 0 mm
07:30 17.3 °C 13.7 °C 1004.3 hPa SE 1.6 km/h 6.4 km/h 79% 0 mm
07:35 17.6 °C 13.9 °C 1004.3 hPa SE 3.2 km/h 6.4 km/h 79% 0 mm
07:40 17.8 °C 13.9 °C 1004.3 hPa ESE 4.8 km/h 8 km/h 78% 0 mm
07:45 18.1 °C 13.9 °C 1004.3 hPa SE 3.2 km/h 8 km/h 77% 0 mm
07:50 18.4 °C 14.1 °C 1004.3 hPa SE 4.8 km/h 11.3 km/h 76% 0 mm
07:55 18.6 °C 14.1 °C 1004.6 hPa South 1.6 km/h 9.7 km/h 75% 0 mm
08:00 18.9 °C 14.2 °C 1004.6 hPa SSE 8 km/h 8 km/h 74% 0 mm
08:05 19.1 °C 14.4 °C 1004.6 hPa SSE 3.2 km/h 8 km/h 74% 0 mm
08:10 19.4 °C 14.4 °C 1004.6 hPa SSE 4.8 km/h 11.3 km/h 73% 0 mm
08:15 19.6 °C 14.4 °C 1004.6 hPa SSE 4.8 km/h 12.9 km/h 72% 0 mm
08:20 19.7 °C 14.5 °C 1004.6 hPa SSE 4.8 km/h 11.3 km/h 72% 0 mm
08:25 19.8 °C 14.4 °C 1004.6 hPa SSE 8 km/h 11.3 km/h 71% 0 mm
08:30 20.1 °C 14.4 °C 1004.6 hPa ESE 4.8 km/h 8 km/h 70% 0 mm
08:35 20.4 °C 14.8 °C 1004.3 hPa SE 3.2 km/h 8 km/h 70% 0 mm
08:40 20.7 °C 14.8 °C 1004.3 hPa SE 4.8 km/h 11.3 km/h 69% 0 mm
08:45 21.2 °C 15.3 °C 1004.3 hPa ESE 4.8 km/h 11.3 km/h 69% 0 mm
08:50 21.3 °C 15.1 °C 1004.3 hPa ESE 4.8 km/h 11.3 km/h 68% 0 mm
08:55 21.4 °C 15.1 °C 1004.3 hPa SE 4.8 km/h 11.3 km/h 67% 0 mm
09:00 21.5 °C 15.1 °C 1004.3 hPa SE 4.8 km/h 11.3 km/h 67% 0 mm
09:05 21.7 °C 15.3 °C 1004.3 hPa SE 4.8 km/h 11.3 km/h 67% 0 mm
09:10 21.8 °C 15.2 °C 1004.3 hPa ESE 6.4 km/h 11.3 km/h 66% 0 mm
09:15 22.2 °C 15.5 °C 1004.3 hPa East 3.2 km/h 9.7 km/h 66% 0 mm
09:20 22.4 °C 15.6 °C 1004.3 hPa Calm   9.7 km/h 65% 0 mm
09:25 22.7 °C 15.6 °C 1004.3 hPa East 1.6 km/h 8 km/h 64% 0 mm
09:30 23 °C 15.8 °C 1004.3 hPa ESE 3.2 km/h 4.8 km/h 64% 0 mm
09:35 23.3 °C 16.1 °C 1003.9 hPa SSE 6.4 km/h 6.4 km/h 64% 0 mm
09:40 23.4 °C 15.7 °C 1003.9 hPa SE 4.8 km/h 11.3 km/h 62% 0 mm
09:45 23.8 °C 15.8 °C 1003.9 hPa SE 4.8 km/h 11.3 km/h 61% 0 mm
09:50 24.3 °C 16.3 °C 1004.3 hPa SE 3.2 km/h 9.7 km/h 61% 0 mm
09:55 24.8 °C 16.2 °C 1003.9 hPa South 3.2 km/h 9.7 km/h 59% 0 mm
10:00 25.1 °C 16 °C 1004.3 hPa SSW 4.8 km/h 9.7 km/h 57% 0 mm
10:05 24.8 °C 15.4 °C 1004.3 hPa SSW 4.8 km/h 12.9 km/h 56% 0 mm
10:10 24.7 °C 15.9 °C 1004.3 hPa South 6.4 km/h 11.3 km/h 58% 0 mm
10:15 24.7 °C 15.3 °C 1004.3 hPa SW 6.4 km/h 11.3 km/h 56% 0 mm
10:20 24.6 °C 15.2 °C 1004.3 hPa SSW 4.8 km/h 14.5 km/h 56% 0 mm
10:25 24.6 °C 15.7 °C 1004.3 hPa SSW 4.8 km/h 12.9 km/h 58% 0 mm
10:30 24.6 °C 15.2 °C 1004.3 hPa SSW 8 km/h 14.5 km/h 56% 0 mm
10:35 24.7 °C 15.6 °C 1004.3 hPa SSE 4.8 km/h 12.9 km/h 57% 0 mm
10:40 25.1 °C 15.9 °C 1004.3 hPa SSW 6.4 km/h 12.9 km/h 57% 0 mm
10:45 25.6 °C 15.8 °C 1004.3 hPa SSW 8 km/h 12.9 km/h 55% 0 mm
10:50 26.1 °C 16.4 °C 1004.3 hPa SSW 8 km/h 16.1 km/h 55% 0 mm
10:55 26.3 °C 16.6 °C 1004.3 hPa SSW 6.4 km/h 17.7 km/h 55% 0 mm
11:00 26.4 °C 16.4 °C 1004.3 hPa SSW 6.4 km/h 17.7 km/h 54% 0 mm
11:05 26.8 °C 16.1 °C 1003.9 hPa SSW 6.4 km/h 12.9 km/h 52% 0 mm
11:10 27 °C 16.3 °C 1003.9 hPa South 8 km/h 16.1 km/h 52% 0 mm
11:15 27.2 °C 16.4 °C 1003.9 hPa SSW 9.7 km/h 12.9 km/h 52% 0 mm
11:20 27.2 °C 15.8 °C 1003.6 hPa SSW 11.3 km/h 14.5 km/h 50% 0 mm
11:25 27.1 °C 15.7 °C 1003.6 hPa South 6.4 km/h 14.5 km/h 50% 0 mm
11:30 27.3 °C 16.3 °C 1003.3 hPa SE 12.9 km/h 12.9 km/h 51% 0 mm
11:35 27.7 °C 16.3 °C 1003.6 hPa South 11.3 km/h 12.9 km/h 50% 0 mm
11:40 27.8 °C 16.1 °C 1003.3 hPa South 8 km/h 16.1 km/h 49% 0 mm
11:45 27.8 °C 17.4 °C 1003.3 hPa South 6.4 km/h 16.1 km/h 53% 0 mm
11:50 27.8 °C 16.1 °C 1003.6 hPa South 6.4 km/h 17.7 km/h 49% 0 mm
11:55 27.9 °C 16.2 °C 1003.3 hPa SSW 8 km/h 17.7 km/h 49% 0 mm
12:00 28.2 °C 16.5 °C 1003.3 hPa SSE 6.4 km/h 17.7 km/h 49% 0 mm
12:05 28.4 °C 16.4 °C 1003.3 hPa South 4.8 km/h 12.9 km/h 48% 0 mm
12:10 28.6 °C 17.2 °C 1002.9 hPa SSE 4.8 km/h 12.9 km/h 50% 0 mm
12:15 28.4 °C 16.4 °C 1002.9 hPa South 8 km/h 17.7 km/h 48% 0 mm
12:20 28.6 °C 16.8 °C 1002.6 hPa SSW 6.4 km/h 14.5 km/h 49% 0 mm
12:25 28.9 °C 17.2 °C 1002.6 hPa South 9.7 km/h 11.3 km/h 49% 0 mm
12:30 28.6 °C 15.8 °C 1002.6 hPa SSW 4.8 km/h 12.9 km/h 46% 0 mm
12:35 28.8 °C 16.4 °C 1002.3 hPa South 3.2 km/h 14.5 km/h 47% 0 mm
12:40 29.1 °C 16.7 °C 1002.3 hPa SSW 6.4 km/h 16.1 km/h 47% 0 mm
12:45 29.3 °C 16.2 °C 1002.3 hPa SSW 4.8 km/h 16.1 km/h 45% 0 mm
12:50 29.1 °C 16.3 °C 1002.3 hPa SSW 8 km/h 17.7 km/h 46% 0 mm
12:55 28.8 °C 16.4 °C 1001.9 hPa SSE 3.2 km/h 16.1 km/h 47% 0 mm
13:00 28.7 °C 17.2 °C 1001.9 hPa SSW 4.8 km/h 16.1 km/h 50% 0 mm
13:05 28.8 °C 17 °C 1001.6 hPa South 8 km/h 16.1 km/h 49% 0 mm
13:10 28.9 °C 17.1 °C 1001.6 hPa SSW 4.8 km/h 12.9 km/h 49% 0 mm
13:15 28.9 °C 16.8 °C 1001.6 hPa South 4.8 km/h 11.3 km/h 48% 0 mm
13:20 29.6 °C 17.1 °C 1001.6 hPa South 4.8 km/h 14.5 km/h 47% 0 mm
13:25 29.6 °C 16 °C 1001.6 hPa SE 6.4 km/h 17.7 km/h 44% 0 mm
13:30 29.9 °C 16.7 °C 1001.2 hPa South 6.4 km/h 11.3 km/h 45% 0 mm
13:35 30.1 °C 16.2 °C 1001.2 hPa SSE 8 km/h 22.5 km/h 43% 0 mm
13:40 29.7 °C 15.8 °C 1001.2 hPa South 1.6 km/h 20.9 km/h 43% 0 mm
13:45 29.8 °C 16.6 °C 1001.2 hPa SSW 9.7 km/h 16.1 km/h 45% 0 mm
13:50 29.9 °C 15.6 °C 1001.2 hPa SE 1.6 km/h 16.1 km/h 42% 0 mm
13:55 29.8 °C 15.5 °C 1000.9 hPa South 12.9 km/h 14.5 km/h 42% 0 mm
14:00 29.6 °C 16.4 °C 1000.9 hPa SE 8 km/h 19.3 km/h 45% 0 mm
14:05 29.6 °C 16.1 °C 1000.6 hPa SE 9.7 km/h 19.3 km/h 44% 0 mm
14:10 30.2 °C 18 °C 1000.6 hPa SE 8 km/h 17.7 km/h 48% 0 mm
14:15 30.1 °C 16.5 °C 1000.6 hPa SE 8 km/h 20.9 km/h 44% 0 mm
14:20 29.7 °C 15 °C 1000.2 hPa SE 9.7 km/h 20.9 km/h 41% 0 mm
14:25 29.6 °C 15.7 °C 1000.2 hPa SE 8 km/h 19.3 km/h 43% 0 mm
14:30 29.9 °C 15.2 °C 1000.2 hPa SSE 14.5 km/h 20.9 km/h 41% 0 mm
14:35 29.7 °C 15.4 °C 1000.2 hPa SSE 9.7 km/h 20.9 km/h 42% 0 mm
14:40 29.7 °C 15.8 °C 1000.2 hPa SSE 9.7 km/h 22.5 km/h 43% 0 mm
14:45 30.1 °C 15 °C 1000.2 hPa SSE 20.9 km/h 20.9 km/h 40% 0 mm
14:50 29.6 °C 15.3 °C 1000.2 hPa SE 12.9 km/h 20.9 km/h 42% 0 mm
14:55 29.9 °C 13.7 °C 1000.2 hPa SSW 6.4 km/h 22.5 km/h 37% 0 mm
15:00 30.3 °C 15.2 °C 1000.2 hPa SSE 11.3 km/h 20.9 km/h 40% 0 mm
15:05 30.5 °C 15 °C 1000.2 hPa South 9.7 km/h 22.5 km/h 39% 0 mm
15:10 30.3 °C 15.6 °C 1000.6 hPa SSE 12.9 km/h 19.3 km/h 41% 0 mm
15:15 30 °C 14.9 °C 1000.2 hPa SSW 11.3 km/h 22.5 km/h 40% 0 mm
15:20 30.3 °C 13.9 °C 1000.2 hPa SSW 6.4 km/h 17.7 km/h 37% 0 mm
15:25 30.1 °C 14.2 °C 1000.2 hPa SSW 8 km/h 16.1 km/h 38% 0 mm
15:30 29.9 °C 14.9 °C 1000.2 hPa South 8 km/h 25.7 km/h 40% 0 mm
15:35 29.7 °C 15.4 °C 1000.2 hPa South 6.4 km/h 25.7 km/h 42% 0 mm
15:40 29.3 °C 14.3 °C 1000.2 hPa South 8 km/h 17.7 km/h 40% 0 mm
15:45 29.1 °C 14.1 °C 1000.2 hPa South 9.7 km/h 17.7 km/h 40% 0 mm
15:50 28.9 °C 13.9 °C 999.9 hPa South 12.9 km/h 20.9 km/h 40% 0 mm
15:55 29 °C 14.4 °C 999.9 hPa SE 11.3 km/h 17.7 km/h 41% 0 mm
16:00 28.9 °C 14 °C 999.5 hPa South 11.3 km/h 17.7 km/h 40% 0 mm
16:05 29.3 °C 14.7 °C 999.5 hPa South 4.8 km/h 14.5 km/h 41% 0 mm
16:10 29.1 °C 14.5 °C 999.5 hPa SSW 14.5 km/h 19.3 km/h 41% 0 mm
16:15 29.1 °C 14.5 °C 999.5 hPa South 14.5 km/h 19.3 km/h 41% 0 mm
16:20 29.1 °C 14.4 °C 999.5 hPa South 6.4 km/h 12.9 km/h 41% 0 mm
16:25 28.9 °C 15.1 °C 999.2 hPa South 4.8 km/h 14.5 km/h 43% 0 mm
16:30 29.1 °C 14.8 °C 999.2 hPa SSW 6.4 km/h 16.1 km/h 42% 0 mm
16:35 28.8 °C 14.6 °C 999.2 hPa South 8 km/h 16.1 km/h 42% 0 mm
16:40 28.8 °C 15 °C 998.9 hPa South 8 km/h 16.1 km/h 43% 0 mm
16:45 29 °C 15.2 °C 998.9 hPa SSW 4.8 km/h 14.5 km/h 43% 0 mm
16:50 28.9 °C 14.7 °C 999.2 hPa SSE 6.4 km/h 17.7 km/h 42% 0 mm
16:55 28.9 °C 14.7 °C 998.9 hPa SSE 8 km/h 17.7 km/h 42% 0 mm
17:00 29.2 °C 14.9 °C 998.9 hPa South 8 km/h 16.1 km/h 42% 0 mm
17:05 29.8 °C 15.2 °C 998.9 hPa SSE 8 km/h 17.7 km/h 41% 0 mm
17:10 29.8 °C 15.5 °C 998.9 hPa SSE 8 km/h 17.7 km/h 42% 0 mm
17:15 29.5 °C 14.9 °C 998.9 hPa East 8 km/h 17.7 km/h 41% 0 mm
17:20 29.5 °C 15.6 °C 998.5 hPa South 6.4 km/h 17.7 km/h 43% 0 mm
17:25 29.4 °C 14.8 °C 998.5 hPa SSE 9.7 km/h 19.3 km/h 41% 0 mm
17:30 29.4 °C 15.5 °C 998.5 hPa SSW 6.4 km/h 17.7 km/h 43% 0 mm
17:35 29.4 °C 15.1 °C 998.5 hPa SW 4.8 km/h 16.1 km/h 42% 0 mm
17:40 29.2 °C 15.3 °C 998.5 hPa South 6.4 km/h 11.3 km/h 43% 0 mm
17:45 29.2 °C 15.3 °C 998.5 hPa South 4.8 km/h 14.5 km/h 43% 0 mm
17:50 29.2 °C 15.3 °C 998.5 hPa SSW 4.8 km/h 14.5 km/h 43% 0 mm
17:55 29.2 °C 14.9 °C 998.5 hPa SSW 4.8 km/h 14.5 km/h 42% 0 mm
18:00 28.8 °C 16.1 °C 998.5 hPa SSW 6.4 km/h 12.9 km/h 46% 0 mm
18:05 28.6 °C 14.8 °C 998.5 hPa SSW 6.4 km/h 11.3 km/h 43% 0 mm
18:10 28.3 °C 15.3 °C 998.5 hPa SW 6.4 km/h 11.3 km/h 45% 0 mm
18:15 28.1 °C 15 °C 998.5 hPa SW 6.4 km/h 9.7 km/h 45% 0 mm
18:20 27.2 °C 14.6 °C 999.5 hPa WNW 11.3 km/h 41.8 km/h 46% 0 mm
18:25 24.1 °C 14.2 °C 999.9 hPa WSW 17.7 km/h 41.8 km/h 54% 0 mm
18:30 22.8 °C 14.4 °C 999.9 hPa WNW 12.9 km/h 37 km/h 59% 0 mm
18:35 22.3 °C 14.4 °C 1000.9 hPa WSW 14.5 km/h 29 km/h 61% 0 mm
18:40 22.1 °C 14.7 °C 1000.9 hPa SW 22.5 km/h 29 km/h 63% 0 mm
18:45 21.9 °C 14.8 °C 1001.2 hPa WNW 14.5 km/h 35.4 km/h 64% 0 mm
18:50 21.8 °C 14.9 °C 1001.6 hPa WNW 19.3 km/h 35.4 km/h 65% 0 mm
18:55 21.7 °C 14.8 °C 1001.6 hPa WSW 16.1 km/h 35.4 km/h 65% 0 mm
19:00 21.6 °C 14.9 °C 1001.6 hPa WSW 14.5 km/h 27.4 km/h 66% 0 mm
19:05 21.3 °C 14.9 °C 1002.3 hPa WSW 11.3 km/h 22.5 km/h 67% 0 mm
19:10 21.1 °C 14.9 °C 1002.6 hPa SW 9.7 km/h 22.5 km/h 68% 0 mm
19:15 20.8 °C 14.9 °C 1002.3 hPa SW 11.3 km/h 22.5 km/h 69% 0 mm
19:20 20.6 °C 14.7 °C 1002.6 hPa South 12.9 km/h 24.1 km/h 69% 0 mm
19:25 19 °C 12.9 °C 1002.6 hPa SW 12.9 km/h 24.1 km/h 68% 0 mm
19:30 17.3 °C 12.7 °C 1002.9 hPa SSW 8 km/h 20.9 km/h 74% 0 mm
19:35 16.6 °C 12.6 °C 1003.3 hPa SSW 11.3 km/h 22.5 km/h 77% 0 mm
19:40 16.3 °C 12.7 °C 1003.3 hPa SSW 8 km/h 16.1 km/h 79% 0 mm
19:45 16.2 °C 12.8 °C 1003.6 hPa SW 6.4 km/h 17.7 km/h 80% 0 mm
19:50 16.2 °C 12.9 °C 1003.6 hPa SW 9.7 km/h 12.9 km/h 81% 0 mm
19:55 16.2 °C 12.9 °C 1003.9 hPa SW 9.7 km/h 20.9 km/h 81% 0 mm
20:00 16.2 °C 12.9 °C 1003.6 hPa SW 11.3 km/h 22.5 km/h 81% 0 mm
20:05 16.1 °C 12.8 °C 1003.6 hPa SW 17.7 km/h 22.5 km/h 81% 0 mm
20:10 16 °C 12.9 °C 1003.9 hPa SW 6.4 km/h 17.7 km/h 82% 0 mm
20:15 16 °C 12.9 °C 1005 hPa SW 12.9 km/h 19.3 km/h 82% 0 mm
20:20 16 °C 12.7 °C 1004.6 hPa SW 6.4 km/h 24.1 km/h 81% 0 mm
20:25 15.9 °C 12.7 °C 1004.3 hPa SW 12.9 km/h 24.1 km/h 81% 0 mm
20:30 15.7 °C 12.8 °C 1003.9 hPa WSW 9.7 km/h 24.1 km/h 83% 0 mm
20:35 15.5 °C 12.8 °C 1004.3 hPa WSW 8 km/h 17.7 km/h 84% 0.25 mm
20:40 15.4 °C 12.9 °C 1004.6 hPa SW 6.4 km/h 17.7 km/h 85% 0.76 mm
20:45 15.4 °C 13.1 °C 1005 hPa South 11.3 km/h 17.7 km/h 86% 1.02 mm
20:50 15.3 °C 13 °C 1005 hPa SW 3.2 km/h 19.3 km/h 86% 1.02 mm
20:55 15.2 °C 12.9 °C 1005 hPa WSW 9.7 km/h 19.3 km/h 86% 1.02 mm
21:00 15.2 °C 13 °C 1005 hPa West 9.7 km/h 14.5 km/h 87% 1.02 mm
21:05 15.1 °C 12.9 °C 1005 hPa SW 3.2 km/h 17.7 km/h 87% 1.02 mm
21:10 15.1 °C 12.9 °C 1005.6 hPa SSW 9.7 km/h 17.7 km/h 87% 1.52 mm
21:15 15 °C 13 °C 1005.6 hPa SSW 8 km/h 19.3 km/h 88% 1.52 mm
21:20 15 °C 13 °C 1005.6 hPa SSW 9.7 km/h 19.3 km/h 88% 1.78 mm
21:25 15 °C 13 °C 1005.3 hPa SSW 9.7 km/h 19.3 km/h 88% 2.03 mm
21:30 14.9 °C 13 °C 1004.6 hPa SW 8 km/h 16.1 km/h 88% 2.03 mm
21:35 14.8 °C 13.1 °C 1004.6 hPa WSW 9.7 km/h 22.5 km/h 89% 2.29 mm
21:40 14.8 °C 13 °C 1004.6 hPa WSW 9.7 km/h 22.5 km/h 89% 2.29 mm
21:45 14.7 °C 12.9 °C 1005 hPa WSW 9.7 km/h 19.3 km/h 89% 2.29 mm
21:50 14.7 °C 12.9 °C 1005 hPa WSW 9.7 km/h 19.3 km/h 89% 2.29 mm
21:55 14.7 °C 12.9 °C 1004.6 hPa WSW 9.7 km/h 19.3 km/h 89% 2.29 mm
22:00 14.7 °C 12.9 °C 1005 hPa West 9.7 km/h 17.7 km/h 89% 2.29 mm
22:05 14.6 °C 12.7 °C 1005.6 hPa West 4.8 km/h 17.7 km/h 88% 2.29 mm
22:10 14.6 °C 12.7 °C 1006 hPa SW 8 km/h 17.7 km/h 88% 1.78 mm
22:15 14.6 °C 12.4 °C 1006.3 hPa SW 11.3 km/h 22.5 km/h 87% 1.78 mm
22:20 14.4 °C 12.1 °C 1006.7 hPa SW 9.7 km/h 29 km/h 86% 1.52 mm
22:25 14.3 °C 11.8 °C 1006.7 hPa SW 9.7 km/h 29 km/h 85% 1.27 mm
22:30 14.2 °C 11.6 °C 1006.7 hPa SW 11.3 km/h 22.5 km/h 84% 1.27 mm
22:35 14.1 °C 11.2 °C 1006.7 hPa SW 12.9 km/h 24.1 km/h 83% 0.76 mm
22:40 14.1 °C 10.8 °C 1006.7 hPa SW 12.9 km/h 25.7 km/h 81% 0.25 mm
22:45 14.1 °C 10.7 °C 1006.7 hPa SW 12.9 km/h 30.6 km/h 80% 0 mm
22:50 14.1 °C 10.3 °C 1006.7 hPa WSW 16.1 km/h 25.7 km/h 78% 0 mm
22:55 14.1 °C 10.1 °C 1007 hPa SW 12.9 km/h 25.7 km/h 77% 0 mm
23:00 13.9 °C 9.7 °C 1007 hPa SSW 9.7 km/h 35.4 km/h 76% 0 mm
23:05 13.7 °C 9.6 °C 1007 hPa WSW 9.7 km/h 25.7 km/h 76% 0 mm
23:10 13.6 °C 9.4 °C 1007 hPa SSW 27.4 km/h 32.2 km/h 76% 0 mm
23:15 13.4 °C 9.2 °C 1007.3 hPa South 12.9 km/h 33.8 km/h 76% 0 mm
23:20 13.3 °C 9.1 °C 1007 hPa SW 16.1 km/h 35.4 km/h 76% 0 mm
23:25 13.2 °C 9 °C 1007 hPa SW 16.1 km/h 38.6 km/h 76% 0 mm
23:30 13.2 °C 8.8 °C 1007 hPa SW 17.7 km/h 38.6 km/h 75% 0 mm
23:35 13.1 °C 8.7 °C 1007 hPa SW 17.7 km/h 37 km/h 75% 0 mm
23:40 13 °C 8.4 °C 1007 hPa SW 17.7 km/h 41.8 km/h 74% 0 mm
23:45 12.9 °C 8.6 °C 1007 hPa SW 16.1 km/h 41.8 km/h 75% 0 mm
23:50 12.8 °C 8.4 °C 1007 hPa SSW 11.3 km/h 45.1 km/h 75% 0 mm
23:55 12.6 °C 8.3 °C 1007.3 hPa SW 22.5 km/h 32.2 km/h 75% 0 mm
Buffalo, New York, USA
Compliments of Weather Underground - 2.5 mb